sensor_id;sensor_type;location;lat;lon;timestamp;P1;durP1;ratioP1;P2;durP2;ratioP2
19593;SDS011;9944;48.240;16.478;2023-06-24T00:01:53;1.25;;;0.82;;
19593;SDS011;9944;48.240;16.478;2023-06-24T00:06:17;1.00;;;0.80;;
19593;SDS011;9944;48.240;16.478;2023-06-24T00:10:42;0.50;;;0.50;;
19593;SDS011;9944;48.240;16.478;2023-06-24T00:15:08;0.68;;;0.60;;
19593;SDS011;9944;48.240;16.478;2023-06-24T00:19:32;1.58;;;0.90;;
19593;SDS011;9944;48.240;16.478;2023-06-24T00:23:56;1.00;;;0.80;;
19593;SDS011;9944;48.240;16.478;2023-06-24T00:28:20;0.80;;;0.75;;
19593;SDS011;9944;48.240;16.478;2023-06-24T00:32:46;0.60;;;0.60;;
19593;SDS011;9944;48.240;16.478;2023-06-24T00:37:09;0.82;;;0.60;;
19593;SDS011;9944;48.240;16.478;2023-06-24T00:41:33;0.60;;;0.60;;
19593;SDS011;9944;48.240;16.478;2023-06-24T00:45:57;0.63;;;0.60;;
19593;SDS011;9944;48.240;16.478;2023-06-24T00:50:22;0.93;;;0.70;;
19593;SDS011;9944;48.240;16.478;2023-06-24T00:54:48;0.70;;;0.60;;
19593;SDS011;9944;48.240;16.478;2023-06-24T00:59:12;0.65;;;0.57;;
19593;SDS011;9944;48.240;16.478;2023-06-24T01:03:37;0.85;;;0.73;;
19593;SDS011;9944;48.240;16.478;2023-06-24T01:08:05;1.65;;;0.70;;
19593;SDS011;9944;48.240;16.478;2023-06-24T01:12:29;0.68;;;0.68;;
19593;SDS011;9944;48.240;16.478;2023-06-24T01:16:55;1.10;;;0.75;;
19593;SDS011;9944;48.240;16.478;2023-06-24T01:21:27;2.53;;;0.88;;
19593;SDS011;9944;48.240;16.478;2023-06-24T01:26:14;1.17;;;0.90;;
19593;SDS011;9944;48.240;16.478;2023-06-24T01:35:45;0.80;;;0.80;;
19593;SDS011;9944;48.240;16.478;2023-06-24T01:40:11;1.67;;;0.77;;
19593;SDS011;9944;48.240;16.478;2023-06-24T01:44:38;1.50;;;0.90;;
19593;SDS011;9944;48.240;16.478;2023-06-24T01:49:05;1.10;;;0.85;;
19593;SDS011;9944;48.240;16.478;2023-06-24T01:53:34;0.95;;;0.70;;
19593;SDS011;9944;48.240;16.478;2023-06-24T01:58:02;1.02;;;0.95;;
19593;SDS011;9944;48.240;16.478;2023-06-24T02:02:29;0.80;;;0.80;;
19593;SDS011;9944;48.240;16.478;2023-06-24T02:06:54;0.63;;;0.63;;
19593;SDS011;9944;48.240;16.478;2023-06-24T02:11:20;1.15;;;0.88;;
19593;SDS011;9944;48.240;16.478;2023-06-24T02:15:46;1.80;;;0.73;;
19593;SDS011;9944;48.240;16.478;2023-06-24T02:20:12;1.50;;;0.90;;
19593;SDS011;9944;48.240;16.478;2023-06-24T02:24:39;1.40;;;0.95;;
19593;SDS011;9944;48.240;16.478;2023-06-24T02:29:06;1.75;;;1.02;;
19593;SDS011;9944;48.240;16.478;2023-06-24T02:33:32;1.08;;;0.98;;
19593;SDS011;9944;48.240;16.478;2023-06-24T02:37:55;0.90;;;0.90;;
19593;SDS011;9944;48.240;16.478;2023-06-24T02:42:19;1.13;;;1.02;;
19593;SDS011;9944;48.240;16.478;2023-06-24T02:46:46;0.80;;;0.80;;
19593;SDS011;9944;48.240;16.478;2023-06-24T02:51:13;2.58;;;0.93;;
19593;SDS011;9944;48.240;16.478;2023-06-24T02:55:36;0.77;;;0.73;;
19593;SDS011;9944;48.240;16.478;2023-06-24T03:00:01;1.00;;;0.80;;
19593;SDS011;9944;48.240;16.478;2023-06-24T03:04:51;1.00;;;0.90;;
19593;SDS011;9944;48.240;16.478;2023-06-24T03:09:17;0.88;;;0.80;;
19593;SDS011;9944;48.240;16.478;2023-06-24T03:13:43;0.90;;;0.80;;
19593;SDS011;9944;48.240;16.478;2023-06-24T03:18:15;0.80;;;0.80;;
19593;SDS011;9944;48.240;16.478;2023-06-24T03:22:43;1.10;;;1.00;;
19593;SDS011;9944;48.240;16.478;2023-06-24T03:27:09;0.88;;;0.82;;
19593;SDS011;9944;48.240;16.478;2023-06-24T03:31:35;1.20;;;1.00;;
19593;SDS011;9944;48.240;16.478;2023-06-24T03:35:59;1.00;;;0.88;;
19593;SDS011;9944;48.240;16.478;2023-06-24T03:40:28;0.98;;;0.93;;
19593;SDS011;9944;48.240;16.478;2023-06-24T03:44:52;0.75;;;0.75;;
19593;SDS011;9944;48.240;16.478;2023-06-24T03:49:17;0.82;;;0.70;;
19593;SDS011;9944;48.240;16.478;2023-06-24T03:53:43;1.15;;;0.60;;
19593;SDS011;9944;48.240;16.478;2023-06-24T03:58:08;0.60;;;0.60;;
19593;SDS011;9944;48.240;16.478;2023-06-24T04:02:33;0.70;;;0.70;;
19593;SDS011;9944;48.240;16.478;2023-06-24T04:06:57;0.70;;;0.70;;
19593;SDS011;9944;48.240;16.478;2023-06-24T04:11:20;0.45;;;0.45;;
19593;SDS011;9944;48.240;16.478;2023-06-24T04:15:45;0.30;;;0.30;;
19593;SDS011;9944;48.240;16.478;2023-06-24T04:20:09;0.40;;;0.40;;
19593;SDS011;9944;48.240;16.478;2023-06-24T04:24:34;0.40;;;0.40;;
19593;SDS011;9944;48.240;16.478;2023-06-24T04:28:58;0.30;;;0.30;;
19593;SDS011;9944;48.240;16.478;2023-06-24T04:33:23;0.43;;;0.40;;
19593;SDS011;9944;48.240;16.478;2023-06-24T04:37:47;0.40;;;0.40;;
19593;SDS011;9944;48.240;16.478;2023-06-24T04:42:12;0.50;;;0.50;;
19593;SDS011;9944;48.240;16.478;2023-06-24T04:46:37;0.77;;;0.50;;
19593;SDS011;9944;48.240;16.478;2023-06-24T04:51:03;0.28;;;0.28;;
19593;SDS011;9944;48.240;16.478;2023-06-24T04:55:27;0.40;;;0.40;;
19593;SDS011;9944;48.240;16.478;2023-06-24T04:59:52;0.43;;;0.43;;
19593;SDS011;9944;48.240;16.478;2023-06-24T05:04:15;0.70;;;0.70;;
19593;SDS011;9944;48.240;16.478;2023-06-24T05:08:40;0.40;;;0.40;;
19593;SDS011;9944;48.240;16.478;2023-06-24T05:13:04;0.50;;;0.50;;
19593;SDS011;9944;48.240;16.478;2023-06-24T05:17:27;0.32;;;0.32;;
19593;SDS011;9944;48.240;16.478;2023-06-24T05:21:51;0.50;;;0.50;;
19593;SDS011;9944;48.240;16.478;2023-06-24T05:26:16;0.30;;;0.30;;
19593;SDS011;9944;48.240;16.478;2023-06-24T05:30:40;0.57;;;0.35;;
19593;SDS011;9944;48.240;16.478;2023-06-24T05:35:05;0.32;;;0.32;;
19593;SDS011;9944;48.240;16.478;2023-06-24T05:39:30;0.38;;;0.38;;
19593;SDS011;9944;48.240;16.478;2023-06-24T05:44:02;0.30;;;0.30;;
19593;SDS011;9944;48.240;16.478;2023-06-24T05:48:27;0.20;;;0.20;;
19593;SDS011;9944;48.240;16.478;2023-06-24T05:52:50;0.40;;;0.40;;
19593;SDS011;9944;48.240;16.478;2023-06-24T05:57:14;0.30;;;0.30;;
19593;SDS011;9944;48.240;16.478;2023-06-24T06:01:39;0.60;;;0.57;;
19593;SDS011;9944;48.240;16.478;2023-06-24T06:06:03;0.55;;;0.52;;
19593;SDS011;9944;48.240;16.478;2023-06-24T06:10:27;0.35;;;0.35;;
19593;SDS011;9944;48.240;16.478;2023-06-24T06:14:50;0.32;;;0.32;;
19593;SDS011;9944;48.240;16.478;2023-06-24T06:19:15;0.32;;;0.32;;
19593;SDS011;9944;48.240;16.478;2023-06-24T06:23:39;0.38;;;0.38;;
19593;SDS011;9944;48.240;16.478;2023-06-24T06:28:03;0.35;;;0.35;;
19593;SDS011;9944;48.240;16.478;2023-06-24T06:32:26;0.30;;;0.30;;
19593;SDS011;9944;48.240;16.478;2023-06-24T06:36:54;0.22;;;0.22;;
19593;SDS011;9944;48.240;16.478;2023-06-24T06:41:18;0.22;;;0.20;;
19593;SDS011;9944;48.240;16.478;2023-06-24T06:45:47;0.38;;;0.38;;
19593;SDS011;9944;48.240;16.478;2023-06-24T06:50:11;0.40;;;0.40;;
19593;SDS011;9944;48.240;16.478;2023-06-24T06:54:35;0.30;;;0.30;;
19593;SDS011;9944;48.240;16.478;2023-06-24T06:59:00;0.40;;;0.40;;
19593;SDS011;9944;48.240;16.478;2023-06-24T07:03:23;0.40;;;0.40;;
19593;SDS011;9944;48.240;16.478;2023-06-24T07:07:47;0.38;;;0.38;;
19593;SDS011;9944;48.240;16.478;2023-06-24T07:12:13;1.30;;;0.75;;
19593;SDS011;9944;48.240;16.478;2023-06-24T07:16:37;0.57;;;0.57;;
19593;SDS011;9944;48.240;16.478;2023-06-24T07:21:01;1.65;;;1.10;;
19593;SDS011;9944;48.240;16.478;2023-06-24T07:25:25;0.65;;;0.65;;
19593;SDS011;9944;48.240;16.478;2023-06-24T07:29:51;0.85;;;0.80;;
19593;SDS011;9944;48.240;16.478;2023-06-24T07:34:15;0.80;;;0.75;;
19593;SDS011;9944;48.240;16.478;2023-06-24T07:38:32;1.13;;;0.82;;
19593;SDS011;9944;48.240;16.478;2023-06-24T07:42:56;1.00;;;0.80;;
19593;SDS011;9944;48.240;16.478;2023-06-24T07:47:21;0.73;;;0.60;;
19593;SDS011;9944;48.240;16.478;2023-06-24T07:51:44;1.02;;;0.93;;
19593;SDS011;9944;48.240;16.478;2023-06-24T07:56:08;0.73;;;0.73;;
19593;SDS011;9944;48.240;16.478;2023-06-24T08:00:32;0.50;;;0.50;;
19593;SDS011;9944;48.240;16.478;2023-06-24T08:05:01;0.88;;;0.70;;
19593;SDS011;9944;48.240;16.478;2023-06-24T08:09:26;0.80;;;0.73;;
19593;SDS011;9944;48.240;16.478;2023-06-24T08:13:49;1.15;;;0.98;;
19593;SDS011;9944;48.240;16.478;2023-06-24T08:18:13;0.93;;;0.80;;
19593;SDS011;9944;48.240;16.478;2023-06-24T08:22:38;1.42;;;1.00;;
19593;SDS011;9944;48.240;16.478;2023-06-24T08:27:01;1.10;;;1.00;;
19593;SDS011;9944;48.240;16.478;2023-06-24T08:31:25;1.65;;;1.00;;
19593;SDS011;9944;48.240;16.478;2023-06-24T08:35:49;1.45;;;1.05;;
19593;SDS011;9944;48.240;16.478;2023-06-24T08:40:14;1.42;;;1.02;;
19593;SDS011;9944;48.240;16.478;2023-06-24T08:44:40;1.42;;;0.90;;
19593;SDS011;9944;48.240;16.478;2023-06-24T08:49:12;2.75;;;1.00;;
19593;SDS011;9944;48.240;16.478;2023-06-24T08:53:41;1.80;;;1.35;;
19593;SDS011;9944;48.240;16.478;2023-06-24T08:58:07;2.13;;;1.00;;
19593;SDS011;9944;48.240;16.478;2023-06-24T09:02:31;1.20;;;1.10;;
19593;SDS011;9944;48.240;16.478;2023-06-24T09:06:57;2.35;;;1.23;;
19593;SDS011;9944;48.240;16.478;2023-06-24T09:11:24;1.52;;;1.20;;
19593;SDS011;9944;48.240;16.478;2023-06-24T09:15:50;1.23;;;1.05;;
19593;SDS011;9944;48.240;16.478;2023-06-24T09:20:13;1.20;;;1.10;;
19593;SDS011;9944;48.240;16.478;2023-06-24T09:24:42;1.70;;;1.30;;
19593;SDS011;9944;48.240;16.478;2023-06-24T09:29:07;1.77;;;1.27;;
19593;SDS011;9944;48.240;16.478;2023-06-24T09:33:32;2.10;;;1.50;;
19593;SDS011;9944;48.240;16.478;2023-06-24T09:37:56;2.38;;;1.73;;
19593;SDS011;9944;48.240;16.478;2023-06-24T09:42:21;2.35;;;1.60;;
19593;SDS011;9944;48.240;16.478;2023-06-24T09:46:46;1.48;;;1.20;;
19593;SDS011;9944;48.240;16.478;2023-06-24T09:51:11;1.50;;;1.40;;
19593;SDS011;9944;48.240;16.478;2023-06-24T09:55:36;1.90;;;1.50;;
19593;SDS011;9944;48.240;16.478;2023-06-24T10:00:05;2.00;;;1.58;;
19593;SDS011;9944;48.240;16.478;2023-06-24T10:04:32;1.73;;;1.30;;
19593;SDS011;9944;48.240;16.478;2023-06-24T10:08:57;1.77;;;1.48;;
19593;SDS011;9944;48.240;16.478;2023-06-24T10:13:22;1.63;;;1.30;;
19593;SDS011;9944;48.240;16.478;2023-06-24T10:17:46;1.90;;;1.25;;
19593;SDS011;9944;48.240;16.478;2023-06-24T10:22:10;1.67;;;1.30;;
19593;SDS011;9944;48.240;16.478;2023-06-24T10:26:36;2.38;;;1.40;;
19593;SDS011;9944;48.240;16.478;2023-06-24T10:31:00;1.40;;;1.30;;
19593;SDS011;9944;48.240;16.478;2023-06-24T10:35:23;2.00;;;1.70;;
19593;SDS011;9944;48.240;16.478;2023-06-24T10:39:50;2.20;;;1.80;;
19593;SDS011;9944;48.240;16.478;2023-06-24T10:44:17;2.30;;;1.75;;
19593;SDS011;9944;48.240;16.478;2023-06-24T10:48:40;2.65;;;2.00;;
19593;SDS011;9944;48.240;16.478;2023-06-24T10:53:04;2.42;;;2.17;;
19593;SDS011;9944;48.240;16.478;2023-06-24T10:57:31;3.28;;;2.20;;
19593;SDS011;9944;48.240;16.478;2023-06-24T11:01:56;2.67;;;2.08;;
19593;SDS011;9944;48.240;16.478;2023-06-24T11:06:20;2.70;;;2.25;;
19593;SDS011;9944;48.240;16.478;2023-06-24T11:10:44;3.45;;;2.53;;
19593;SDS011;9944;48.240;16.478;2023-06-24T11:15:09;3.85;;;2.40;;
19593;SDS011;9944;48.240;16.478;2023-06-24T11:19:35;3.50;;;2.70;;
19593;SDS011;9944;48.240;16.478;2023-06-24T11:24:01;4.38;;;2.42;;
19593;SDS011;9944;48.240;16.478;2023-06-24T11:28:25;3.05;;;2.40;;
19593;SDS011;9944;48.240;16.478;2023-06-24T11:32:50;4.80;;;3.00;;
19593;SDS011;9944;48.240;16.478;2023-06-24T11:37:15;3.65;;;2.60;;
19593;SDS011;9944;48.240;16.478;2023-06-24T11:41:40;3.60;;;2.65;;
19593;SDS011;9944;48.240;16.478;2023-06-24T11:46:04;3.95;;;2.63;;
19593;SDS011;9944;48.240;16.478;2023-06-24T11:50:27;3.40;;;2.70;;
19593;SDS011;9944;48.240;16.478;2023-06-24T11:54:52;3.25;;;2.53;;
19593;SDS011;9944;48.240;16.478;2023-06-24T11:59:16;3.28;;;2.72;;
19593;SDS011;9944;48.240;16.478;2023-06-24T12:03:41;3.17;;;2.65;;
19593;SDS011;9944;48.240;16.478;2023-06-24T12:08:06;4.20;;;3.10;;
19593;SDS011;9944;48.240;16.478;2023-06-24T12:12:32;4.00;;;2.40;;
19593;SDS011;9944;48.240;16.478;2023-06-24T12:16:56;4.35;;;2.92;;
19593;SDS011;9944;48.240;16.478;2023-06-24T12:21:19;3.17;;;2.42;;
19593;SDS011;9944;48.240;16.478;2023-06-24T12:25:43;3.08;;;2.60;;
19593;SDS011;9944;48.240;16.478;2023-06-24T12:30:08;4.30;;;2.67;;
19593;SDS011;9944;48.240;16.478;2023-06-24T12:34:32;3.75;;;2.97;;
19593;SDS011;9944;48.240;16.478;2023-06-24T12:38:56;4.28;;;3.20;;
19593;SDS011;9944;48.240;16.478;2023-06-24T12:43:19;4.93;;;2.92;;
19593;SDS011;9944;48.240;16.478;2023-06-24T12:47:45;3.53;;;2.55;;
19593;SDS011;9944;48.240;16.478;2023-06-24T12:52:08;3.60;;;2.42;;
19593;SDS011;9944;48.240;16.478;2023-06-24T12:56:32;3.42;;;2.70;;
19593;SDS011;9944;48.240;16.478;2023-06-24T13:00:56;2.70;;;2.15;;
19593;SDS011;9944;48.240;16.478;2023-06-24T13:05:20;3.50;;;2.30;;
19593;SDS011;9944;48.240;16.478;2023-06-24T13:09:44;3.83;;;2.72;;
19593;SDS011;9944;48.240;16.478;2023-06-24T13:14:08;4.32;;;2.88;;
19593;SDS011;9944;48.240;16.478;2023-06-24T13:18:32;4.25;;;3.22;;
19593;SDS011;9944;48.240;16.478;2023-06-24T13:22:57;3.97;;;2.90;;
19593;SDS011;9944;48.240;16.478;2023-06-24T13:27:21;4.07;;;3.03;;
19593;SDS011;9944;48.240;16.478;2023-06-24T13:31:44;4.85;;;3.45;;
19593;SDS011;9944;48.240;16.478;2023-06-24T13:36:08;3.33;;;2.50;;
19593;SDS011;9944;48.240;16.478;2023-06-24T13:40:49;3.55;;;2.85;;
19593;SDS011;9944;48.240;16.478;2023-06-24T13:45:14;3.90;;;3.10;;
19593;SDS011;9944;48.240;16.478;2023-06-24T13:49:37;4.10;;;2.75;;
19593;SDS011;9944;48.240;16.478;2023-06-24T13:54:01;3.40;;;2.70;;
19593;SDS011;9944;48.240;16.478;2023-06-24T13:58:26;4.15;;;3.30;;
19593;SDS011;9944;48.240;16.478;2023-06-24T14:02:50;4.25;;;3.05;;
19593;SDS011;9944;48.240;16.478;2023-06-24T14:07:14;4.20;;;3.38;;
19593;SDS011;9944;48.240;16.478;2023-06-24T14:11:38;4.03;;;3.25;;
19593;SDS011;9944;48.240;16.478;2023-06-24T14:16:03;4.35;;;3.28;;
19593;SDS011;9944;48.240;16.478;2023-06-24T14:20:28;3.33;;;2.80;;
19593;SDS011;9944;48.240;16.478;2023-06-24T14:24:51;4.95;;;3.20;;
19593;SDS011;9944;48.240;16.478;2023-06-24T14:29:15;4.00;;;3.30;;
19593;SDS011;9944;48.240;16.478;2023-06-24T14:33:40;4.82;;;3.20;;
19593;SDS011;9944;48.240;16.478;2023-06-24T14:38:04;4.55;;;3.50;;
19593;SDS011;9944;48.240;16.478;2023-06-24T14:42:27;4.07;;;3.38;;
19593;SDS011;9944;48.240;16.478;2023-06-24T14:46:51;4.13;;;3.10;;
19593;SDS011;9944;48.240;16.478;2023-06-24T14:51:16;4.18;;;2.95;;
19593;SDS011;9944;48.240;16.478;2023-06-24T14:55:40;3.97;;;3.00;;
19593;SDS011;9944;48.240;16.478;2023-06-24T15:00:03;3.67;;;3.00;;
19593;SDS011;9944;48.240;16.478;2023-06-24T15:04:28;3.53;;;3.00;;
19593;SDS011;9944;48.240;16.478;2023-06-24T15:08:52;4.18;;;3.15;;
19593;SDS011;9944;48.240;16.478;2023-06-24T15:13:16;4.35;;;3.42;;
19593;SDS011;9944;48.240;16.478;2023-06-24T15:17:40;4.10;;;3.20;;
19593;SDS011;9944;48.240;16.478;2023-06-24T15:22:07;5.15;;;3.35;;
19593;SDS011;9944;48.240;16.478;2023-06-24T15:26:32;3.40;;;2.78;;
19593;SDS011;9944;48.240;16.478;2023-06-24T15:30:55;4.43;;;3.25;;
19593;SDS011;9944;48.240;16.478;2023-06-24T15:35:19;4.18;;;2.92;;
19593;SDS011;9944;48.240;16.478;2023-06-24T15:39:43;3.88;;;3.28;;
19593;SDS011;9944;48.240;16.478;2023-06-24T15:44:08;3.95;;;3.25;;
19593;SDS011;9944;48.240;16.478;2023-06-24T15:48:32;3.85;;;2.90;;
19593;SDS011;9944;48.240;16.478;2023-06-24T15:52:56;4.47;;;2.85;;
19593;SDS011;9944;48.240;16.478;2023-06-24T15:57:19;4.07;;;3.05;;
19593;SDS011;9944;48.240;16.478;2023-06-24T16:01:44;3.83;;;3.20;;
19593;SDS011;9944;48.240;16.478;2023-06-24T16:06:08;4.07;;;3.08;;
19593;SDS011;9944;48.240;16.478;2023-06-24T16:10:31;3.90;;;2.80;;
19593;SDS011;9944;48.240;16.478;2023-06-24T16:14:56;4.30;;;3.00;;
19593;SDS011;9944;48.240;16.478;2023-06-24T16:19:21;3.67;;;2.83;;
19593;SDS011;9944;48.240;16.478;2023-06-24T16:23:44;4.00;;;2.92;;
19593;SDS011;9944;48.240;16.478;2023-06-24T16:28:07;3.67;;;2.90;;
19593;SDS011;9944;48.240;16.478;2023-06-24T16:32:31;3.80;;;2.75;;
19593;SDS011;9944;48.240;16.478;2023-06-24T16:36:57;3.55;;;2.90;;
19593;SDS011;9944;48.240;16.478;2023-06-24T16:41:21;4.68;;;3.10;;
19593;SDS011;9944;48.240;16.478;2023-06-24T16:45:46;4.22;;;3.20;;
19593;SDS011;9944;48.240;16.478;2023-06-24T16:50:09;5.10;;;2.95;;
19593;SDS011;9944;48.240;16.478;2023-06-24T16:54:34;4.40;;;2.90;;
19593;SDS011;9944;48.240;16.478;2023-06-24T16:58:58;3.45;;;2.78;;
19593;SDS011;9944;48.240;16.478;2023-06-24T17:03:21;3.70;;;3.00;;
19593;SDS011;9944;48.240;16.478;2023-06-24T17:07:45;4.13;;;3.13;;
19593;SDS011;9944;48.240;16.478;2023-06-24T17:12:10;5.30;;;3.03;;
19593;SDS011;9944;48.240;16.478;2023-06-24T17:16:34;4.15;;;3.05;;
19593;SDS011;9944;48.240;16.478;2023-06-24T17:20:57;3.20;;;2.72;;
19593;SDS011;9944;48.240;16.478;2023-06-24T17:25:21;4.00;;;2.88;;
19593;SDS011;9944;48.240;16.478;2023-06-24T17:29:46;5.97;;;3.08;;
19593;SDS011;9944;48.240;16.478;2023-06-24T17:34:10;4.18;;;2.88;;
19593;SDS011;9944;48.240;16.478;2023-06-24T17:38:33;4.03;;;3.10;;
19593;SDS011;9944;48.240;16.478;2023-06-24T17:42:57;4.75;;;2.80;;
19593;SDS011;9944;48.240;16.478;2023-06-24T17:47:22;3.70;;;2.95;;
19593;SDS011;9944;48.240;16.478;2023-06-24T17:51:46;3.50;;;2.80;;
19593;SDS011;9944;48.240;16.478;2023-06-24T17:56:10;4.18;;;2.60;;
19593;SDS011;9944;48.240;16.478;2023-06-24T18:00:34;4.15;;;2.85;;
19593;SDS011;9944;48.240;16.478;2023-06-24T18:05:03;4.13;;;3.08;;
19593;SDS011;9944;48.240;16.478;2023-06-24T18:09:28;3.88;;;2.75;;
19593;SDS011;9944;48.240;16.478;2023-06-24T18:13:51;3.13;;;2.83;;
19593;SDS011;9944;48.240;16.478;2023-06-24T18:18:15;4.03;;;3.10;;
19593;SDS011;9944;48.240;16.478;2023-06-24T18:22:41;3.30;;;2.50;;
19593;SDS011;9944;48.240;16.478;2023-06-24T18:27:05;3.60;;;2.85;;
19593;SDS011;9944;48.240;16.478;2023-06-24T18:31:29;2.58;;;2.20;;
19593;SDS011;9944;48.240;16.478;2023-06-24T18:35:53;3.58;;;2.95;;
19593;SDS011;9944;48.240;16.478;2023-06-24T18:40:17;3.15;;;2.58;;
19593;SDS011;9944;48.240;16.478;2023-06-24T18:44:41;3.97;;;2.78;;
19593;SDS011;9944;48.240;16.478;2023-06-24T18:49:05;3.58;;;2.50;;
19593;SDS011;9944;48.240;16.478;2023-06-24T18:53:31;3.22;;;2.58;;
19593;SDS011;9944;48.240;16.478;2023-06-24T18:58:11;3.97;;;2.78;;
19593;SDS011;9944;48.240;16.478;2023-06-24T19:02:35;5.55;;;3.00;;
19593;SDS011;9944;48.240;16.478;2023-06-24T19:06:58;3.40;;;2.47;;
19593;SDS011;9944;48.240;16.478;2023-06-24T19:11:22;2.90;;;2.30;;
19593;SDS011;9944;48.240;16.478;2023-06-24T19:15:47;3.45;;;2.40;;
19593;SDS011;9944;48.240;16.478;2023-06-24T19:20:11;3.67;;;2.45;;
19593;SDS011;9944;48.240;16.478;2023-06-24T19:24:35;2.67;;;2.35;;
19593;SDS011;9944;48.240;16.478;2023-06-24T19:28:59;3.45;;;2.88;;
19593;SDS011;9944;48.240;16.478;2023-06-24T19:33:25;4.70;;;3.00;;
19593;SDS011;9944;48.240;16.478;2023-06-24T19:37:49;4.43;;;3.05;;
19593;SDS011;9944;48.240;16.478;2023-06-24T19:42:12;4.20;;;2.72;;
19593;SDS011;9944;48.240;16.478;2023-06-24T19:46:36;4.35;;;2.92;;
19593;SDS011;9944;48.240;16.478;2023-06-24T19:51:04;4.80;;;3.17;;
19593;SDS011;9944;48.240;16.478;2023-06-24T19:55:28;2.63;;;2.20;;
19593;SDS011;9944;48.240;16.478;2023-06-24T19:59:52;4.60;;;2.65;;
19593;SDS011;9944;48.240;16.478;2023-06-24T20:04:15;4.63;;;2.90;;
19593;SDS011;9944;48.240;16.478;2023-06-24T20:08:40;3.90;;;2.42;;
19593;SDS011;9944;48.240;16.478;2023-06-24T20:13:04;3.90;;;2.63;;
19593;SDS011;9944;48.240;16.478;2023-06-24T20:17:28;3.90;;;2.60;;
19593;SDS011;9944;48.240;16.478;2023-06-24T20:21:52;3.67;;;2.80;;
19593;SDS011;9944;48.240;16.478;2023-06-24T20:26:17;3.00;;;2.45;;
19593;SDS011;9944;48.240;16.478;2023-06-24T20:30:40;4.28;;;2.60;;
19593;SDS011;9944;48.240;16.478;2023-06-24T20:35:04;3.20;;;2.53;;
19593;SDS011;9944;48.240;16.478;2023-06-24T20:39:28;3.58;;;2.50;;
19593;SDS011;9944;48.240;16.478;2023-06-24T20:43:53;3.72;;;2.90;;
19593;SDS011;9944;48.240;16.478;2023-06-24T20:48:17;3.67;;;2.70;;
19593;SDS011;9944;48.240;16.478;2023-06-24T20:52:41;3.95;;;2.65;;
19593;SDS011;9944;48.240;16.478;2023-06-24T20:57:05;3.50;;;2.60;;
19593;SDS011;9944;48.240;16.478;2023-06-24T21:01:29;2.63;;;2.20;;
19593;SDS011;9944;48.240;16.478;2023-06-24T21:05:53;2.97;;;2.33;;
19593;SDS011;9944;48.240;16.478;2023-06-24T21:10:17;2.88;;;2.45;;
19593;SDS011;9944;48.240;16.478;2023-06-24T21:14:40;3.90;;;2.50;;
19593;SDS011;9944;48.240;16.478;2023-06-24T21:19:06;3.50;;;2.72;;
19593;SDS011;9944;48.240;16.478;2023-06-24T21:23:31;4.45;;;2.58;;
19593;SDS011;9944;48.240;16.478;2023-06-24T21:27:54;3.70;;;2.80;;
19593;SDS011;9944;48.240;16.478;2023-06-24T21:32:18;3.58;;;2.70;;
19593;SDS011;9944;48.240;16.478;2023-06-24T21:36:43;3.88;;;2.90;;
19593;SDS011;9944;48.240;16.478;2023-06-24T21:41:07;3.17;;;2.30;;
19593;SDS011;9944;48.240;16.478;2023-06-24T21:45:30;3.58;;;2.70;;
19593;SDS011;9944;48.240;16.478;2023-06-24T21:49:55;3.38;;;2.38;;
19593;SDS011;9944;48.240;16.478;2023-06-24T21:54:20;3.30;;;2.50;;
19593;SDS011;9944;48.240;16.478;2023-06-24T21:58:44;3.67;;;2.60;;
19593;SDS011;9944;48.240;16.478;2023-06-24T22:03:07;3.30;;;2.70;;
19593;SDS011;9944;48.240;16.478;2023-06-24T22:07:31;3.17;;;2.53;;
19593;SDS011;9944;48.240;16.478;2023-06-24T22:11:56;4.18;;;2.60;;
19593;SDS011;9944;48.240;16.478;2023-06-24T22:16:19;2.83;;;2.38;;
19593;SDS011;9944;48.240;16.478;2023-06-24T22:20:43;3.20;;;2.80;;
19593;SDS011;9944;48.240;16.478;2023-06-24T22:25:08;4.15;;;3.28;;
19593;SDS011;9944;48.240;16.478;2023-06-24T22:29:33;3.85;;;2.80;;
19593;SDS011;9944;48.240;16.478;2023-06-24T22:33:57;3.88;;;2.80;;
19593;SDS011;9944;48.240;16.478;2023-06-24T22:38:20;4.20;;;3.15;;
19593;SDS011;9944;48.240;16.478;2023-06-24T22:42:44;3.20;;;2.85;;
19593;SDS011;9944;48.240;16.478;2023-06-24T22:47:09;3.53;;;3.00;;
19593;SDS011;9944;48.240;16.478;2023-06-24T22:51:33;3.70;;;2.85;;
19593;SDS011;9944;48.240;16.478;2023-06-24T22:55:56;4.75;;;2.97;;
19593;SDS011;9944;48.240;16.478;2023-06-24T23:00:20;3.50;;;2.75;;
19593;SDS011;9944;48.240;16.478;2023-06-24T23:04:47;3.80;;;2.65;;
19593;SDS011;9944;48.240;16.478;2023-06-24T23:09:11;3.92;;;3.25;;
19593;SDS011;9944;48.240;16.478;2023-06-24T23:13:35;4.70;;;2.83;;
19593;SDS011;9944;48.240;16.478;2023-06-24T23:17:59;4.18;;;2.85;;
19593;SDS011;9944;48.240;16.478;2023-06-24T23:22:25;4.28;;;3.00;;
19593;SDS011;9944;48.240;16.478;2023-06-24T23:26:49;4.07;;;3.00;;
19593;SDS011;9944;48.240;16.478;2023-06-24T23:31:14;5.25;;;2.67;;
19593;SDS011;9944;48.240;16.478;2023-06-24T23:35:40;4.90;;;2.85;;
19593;SDS011;9944;48.240;16.478;2023-06-24T23:40:06;4.13;;;2.70;;
19593;SDS011;9944;48.240;16.478;2023-06-24T23:44:31;4.82;;;2.80;;
19593;SDS011;9944;48.240;16.478;2023-06-24T23:48:54;3.53;;;2.60;;
19593;SDS011;9944;48.240;16.478;2023-06-24T23:53:18;4.63;;;2.80;;
19593;SDS011;9944;48.240;16.478;2023-06-24T23:57:43;5.40;;;2.88;;
